sensor_id;sensor_type;location;lat;lon;timestamp;P1;durP1;ratioP1;P2;durP2;ratioP2
78875;SDS011;68253;52.506;5.486;2023-09-19T00:01:42;7.45;;;1.00;;
78875;SDS011;68253;52.506;5.486;2023-09-19T00:04:11;6.60;;;1.00;;
78875;SDS011;68253;52.506;5.486;2023-09-19T00:06:38;8.38;;;1.10;;
78875;SDS011;68253;52.506;5.486;2023-09-19T00:09:05;6.07;;;0.90;;
78875;SDS011;68253;52.506;5.486;2023-09-19T00:11:36;8.50;;;1.58;;
78875;SDS011;68253;52.506;5.486;2023-09-19T00:14:03;6.45;;;1.08;;
78875;SDS011;68253;52.506;5.486;2023-09-19T00:16:34;7.28;;;0.93;;
78875;SDS011;68253;52.506;5.486;2023-09-19T00:19:01;5.05;;;0.63;;
78875;SDS011;68253;52.506;5.486;2023-09-19T00:21:33;5.88;;;0.70;;
78875;SDS011;68253;52.506;5.486;2023-09-19T00:24:01;8.07;;;1.00;;
78875;SDS011;68253;52.506;5.486;2023-09-19T00:26:27;7.78;;;0.90;;
78875;SDS011;68253;52.506;5.486;2023-09-19T00:28:56;6.60;;;1.08;;
78875;SDS011;68253;52.506;5.486;2023-09-19T00:31:22;7.45;;;1.10;;
78875;SDS011;68253;52.506;5.486;2023-09-19T00:33:48;7.70;;;1.23;;
78875;SDS011;68253;52.506;5.486;2023-09-19T00:36:15;7.05;;;0.80;;
78875;SDS011;68253;52.506;5.486;2023-09-19T00:38:41;7.57;;;0.90;;
78875;SDS011;68253;52.506;5.486;2023-09-19T00:41:07;5.28;;;0.80;;
78875;SDS011;68253;52.506;5.486;2023-09-19T00:43:33;6.38;;;1.00;;
78875;SDS011;68253;52.506;5.486;2023-09-19T00:46:00;5.75;;;0.80;;
78875;SDS011;68253;52.506;5.486;2023-09-19T00:48:28;7.10;;;0.80;;
78875;SDS011;68253;52.506;5.486;2023-09-19T00:50:55;5.88;;;0.70;;
78875;SDS011;68253;52.506;5.486;2023-09-19T00:53:25;7.07;;;0.98;;
78875;SDS011;68253;52.506;5.486;2023-09-19T00:55:53;5.40;;;0.82;;
78875;SDS011;68253;52.506;5.486;2023-09-19T00:58:21;4.15;;;0.90;;
78875;SDS011;68253;52.506;5.486;2023-09-19T01:00:48;3.35;;;0.70;;
78875;SDS011;68253;52.506;5.486;2023-09-19T01:03:15;4.90;;;0.70;;
78875;SDS011;68253;52.506;5.486;2023-09-19T01:05:43;7.18;;;1.17;;
78875;SDS011;68253;52.506;5.486;2023-09-19T01:08:11;7.55;;;1.55;;
78875;SDS011;68253;52.506;5.486;2023-09-19T01:10:38;5.47;;;0.80;;
78875;SDS011;68253;52.506;5.486;2023-09-19T01:15:51;4.60;;;0.80;;
78875;SDS011;68253;52.506;5.486;2023-09-19T01:19:05;5.88;;;0.75;;
78875;SDS011;68253;52.506;5.486;2023-09-19T01:21:57;5.60;;;1.00;;
78875;SDS011;68253;52.506;5.486;2023-09-19T01:30:17;5.95;;;1.00;;
78875;SDS011;68253;52.506;5.486;2023-09-19T01:32:50;5.13;;;1.20;;
78875;SDS011;68253;52.506;5.486;2023-09-19T01:35:18;6.63;;;1.10;;
78875;SDS011;68253;52.506;5.486;2023-09-19T01:37:44;6.38;;;0.75;;
78875;SDS011;68253;52.506;5.486;2023-09-19T01:40:15;6.55;;;0.98;;
78875;SDS011;68253;52.506;5.486;2023-09-19T01:48:58;5.90;;;0.90;;
78875;SDS011;68253;52.506;5.486;2023-09-19T01:51:52;7.35;;;0.82;;
78875;SDS011;68253;52.506;5.486;2023-09-19T01:54:24;4.30;;;0.77;;
78875;SDS011;68253;52.506;5.486;2023-09-19T01:57:02;5.65;;;0.80;;
78875;SDS011;68253;52.506;5.486;2023-09-19T02:02:09;5.35;;;0.80;;
78875;SDS011;68253;52.506;5.486;2023-09-19T02:04:37;9.52;;;1.20;;
78875;SDS011;68253;52.506;5.486;2023-09-19T02:07:03;5.53;;;0.88;;
78875;SDS011;68253;52.506;5.486;2023-09-19T02:09:31;6.90;;;0.80;;
78875;SDS011;68253;52.506;5.486;2023-09-19T02:12:01;5.28;;;0.90;;
78875;SDS011;68253;52.506;5.486;2023-09-19T02:14:29;6.45;;;0.70;;
78875;SDS011;68253;52.506;5.486;2023-09-19T02:16:56;5.95;;;0.82;;
78875;SDS011;68253;52.506;5.486;2023-09-19T02:19:22;4.35;;;0.82;;
78875;SDS011;68253;52.506;5.486;2023-09-19T02:21:49;6.28;;;1.00;;
78875;SDS011;68253;52.506;5.486;2023-09-19T02:24:15;6.47;;;1.25;;
78875;SDS011;68253;52.506;5.486;2023-09-19T02:26:41;8.02;;;1.20;;
78875;SDS011;68253;52.506;5.486;2023-09-19T02:29:08;5.13;;;0.73;;
78875;SDS011;68253;52.506;5.486;2023-09-19T02:31:36;5.82;;;0.82;;
78875;SDS011;68253;52.506;5.486;2023-09-19T02:34:03;6.10;;;1.08;;
78875;SDS011;68253;52.506;5.486;2023-09-19T02:36:29;5.80;;;0.90;;
78875;SDS011;68253;52.506;5.486;2023-09-19T02:38:56;7.10;;;1.00;;
78875;SDS011;68253;52.506;5.486;2023-09-19T02:41:22;5.32;;;0.80;;
78875;SDS011;68253;52.506;5.486;2023-09-19T02:43:48;7.22;;;1.00;;
78875;SDS011;68253;52.506;5.486;2023-09-19T02:46:14;8.07;;;1.27;;
78875;SDS011;68253;52.506;5.486;2023-09-19T02:48:42;7.97;;;1.17;;
78875;SDS011;68253;52.506;5.486;2023-09-19T02:51:08;8.00;;;1.30;;
78875;SDS011;68253;52.506;5.486;2023-09-19T02:53:34;4.88;;;0.93;;
78875;SDS011;68253;52.506;5.486;2023-09-19T02:56:01;8.80;;;1.02;;
78875;SDS011;68253;52.506;5.486;2023-09-19T02:58:29;10.05;;;1.30;;
78875;SDS011;68253;52.506;5.486;2023-09-19T03:00:56;6.68;;;1.23;;
78875;SDS011;68253;52.506;5.486;2023-09-19T03:03:23;7.03;;;1.00;;
78875;SDS011;68253;52.506;5.486;2023-09-19T03:05:49;5.00;;;0.90;;
78875;SDS011;68253;52.506;5.486;2023-09-19T03:08:18;3.80;;;0.88;;
78875;SDS011;68253;52.506;5.486;2023-09-19T03:10:46;6.80;;;1.10;;
78875;SDS011;68253;52.506;5.486;2023-09-19T03:13:14;6.50;;;1.00;;
78875;SDS011;68253;52.506;5.486;2023-09-19T03:15:43;8.05;;;1.33;;
78875;SDS011;68253;52.506;5.486;2023-09-19T03:18:12;7.97;;;1.02;;
78875;SDS011;68253;52.506;5.486;2023-09-19T03:20:39;4.53;;;0.80;;
78875;SDS011;68253;52.506;5.486;2023-09-19T03:23:05;7.40;;;0.85;;
78875;SDS011;68253;52.506;5.486;2023-09-19T03:25:33;9.32;;;1.30;;
78875;SDS011;68253;52.506;5.486;2023-09-19T03:28:01;6.93;;;1.00;;
78875;SDS011;68253;52.506;5.486;2023-09-19T03:30:31;7.43;;;0.90;;
78875;SDS011;68253;52.506;5.486;2023-09-19T03:33:00;6.13;;;1.20;;
78875;SDS011;68253;52.506;5.486;2023-09-19T03:35:26;5.00;;;0.90;;
78875;SDS011;68253;52.506;5.486;2023-09-19T03:37:52;8.02;;;1.10;;
78875;SDS011;68253;52.506;5.486;2023-09-19T03:40:18;8.63;;;1.15;;
78875;SDS011;68253;52.506;5.486;2023-09-19T03:42:47;7.93;;;1.30;;
78875;SDS011;68253;52.506;5.486;2023-09-19T03:45:13;6.03;;;0.90;;
78875;SDS011;68253;52.506;5.486;2023-09-19T03:47:44;7.38;;;1.15;;
78875;SDS011;68253;52.506;5.486;2023-09-19T03:50:13;8.00;;;1.20;;
78875;SDS011;68253;52.506;5.486;2023-09-19T03:52:46;6.90;;;1.35;;
78875;SDS011;68253;52.506;5.486;2023-09-19T03:57:39;9.43;;;1.60;;
78875;SDS011;68253;52.506;5.486;2023-09-19T04:00:06;7.35;;;1.20;;
78875;SDS011;68253;52.506;5.486;2023-09-19T04:02:40;9.75;;;1.30;;
78875;SDS011;68253;52.506;5.486;2023-09-19T04:05:06;8.35;;;1.08;;
78875;SDS011;68253;52.506;5.486;2023-09-19T04:07:33;8.73;;;1.23;;
78875;SDS011;68253;52.506;5.486;2023-09-19T04:10:00;8.32;;;1.10;;
78875;SDS011;68253;52.506;5.486;2023-09-19T04:12:27;8.63;;;1.10;;
78875;SDS011;68253;52.506;5.486;2023-09-19T04:14:53;9.23;;;1.15;;
78875;SDS011;68253;52.506;5.486;2023-09-19T04:17:19;7.63;;;1.38;;
78875;SDS011;68253;52.506;5.486;2023-09-19T04:19:46;8.10;;;1.38;;
78875;SDS011;68253;52.506;5.486;2023-09-19T04:22:12;7.20;;;0.85;;
78875;SDS011;68253;52.506;5.486;2023-09-19T04:24:38;5.70;;;0.82;;
78875;SDS011;68253;52.506;5.486;2023-09-19T04:27:04;7.35;;;1.00;;
78875;SDS011;68253;52.506;5.486;2023-09-19T04:29:30;10.20;;;1.33;;
78875;SDS011;68253;52.506;5.486;2023-09-19T04:31:57;7.03;;;1.00;;
78875;SDS011;68253;52.506;5.486;2023-09-19T04:34:23;9.27;;;1.10;;
78875;SDS011;68253;52.506;5.486;2023-09-19T04:36:50;9.43;;;1.70;;
78875;SDS011;68253;52.506;5.486;2023-09-19T04:39:16;7.13;;;1.35;;
78875;SDS011;68253;52.506;5.486;2023-09-19T04:41:43;9.07;;;1.40;;
78875;SDS011;68253;52.506;5.486;2023-09-19T04:44:11;9.00;;;1.10;;
78875;SDS011;68253;52.506;5.486;2023-09-19T04:46:38;9.00;;;1.10;;
78875;SDS011;68253;52.506;5.486;2023-09-19T04:49:04;7.80;;;1.20;;
78875;SDS011;68253;52.506;5.486;2023-09-19T04:51:31;8.57;;;1.10;;
78875;SDS011;68253;52.506;5.486;2023-09-19T04:54:00;8.02;;;1.05;;
78875;SDS011;68253;52.506;5.486;2023-09-19T04:56:26;6.47;;;0.90;;
78875;SDS011;68253;52.506;5.486;2023-09-19T04:58:54;8.45;;;0.90;;
78875;SDS011;68253;52.506;5.486;2023-09-19T05:01:20;10.23;;;1.20;;
78875;SDS011;68253;52.506;5.486;2023-09-19T05:03:48;10.15;;;1.55;;
78875;SDS011;68253;52.506;5.486;2023-09-19T05:06:18;8.15;;;1.30;;
78875;SDS011;68253;52.506;5.486;2023-09-19T05:08:50;10.23;;;1.80;;
78875;SDS011;68253;52.506;5.486;2023-09-19T05:11:18;7.82;;;1.00;;
78875;SDS011;68253;52.506;5.486;2023-09-19T05:13:50;11.68;;;1.48;;
78875;SDS011;68253;52.506;5.486;2023-09-19T05:16:16;6.53;;;1.00;;
78875;SDS011;68253;52.506;5.486;2023-09-19T05:18:42;7.20;;;1.02;;
78875;SDS011;68253;52.506;5.486;2023-09-19T05:21:08;11.18;;;1.42;;
78875;SDS011;68253;52.506;5.486;2023-09-19T05:23:34;6.85;;;1.13;;
78875;SDS011;68253;52.506;5.486;2023-09-19T05:26:02;9.55;;;1.10;;
78875;SDS011;68253;52.506;5.486;2023-09-19T05:28:29;8.57;;;1.10;;
78875;SDS011;68253;52.506;5.486;2023-09-19T05:30:55;9.82;;;1.10;;
78875;SDS011;68253;52.506;5.486;2023-09-19T05:33:21;7.22;;;1.00;;
78875;SDS011;68253;52.506;5.486;2023-09-19T05:35:48;7.72;;;1.33;;
78875;SDS011;68253;52.506;5.486;2023-09-19T05:38:14;6.70;;;0.93;;
78875;SDS011;68253;52.506;5.486;2023-09-19T05:40:44;10.88;;;1.05;;
78875;SDS011;68253;52.506;5.486;2023-09-19T05:43:11;5.45;;;1.10;;
78875;SDS011;68253;52.506;5.486;2023-09-19T05:45:37;7.85;;;1.10;;
78875;SDS011;68253;52.506;5.486;2023-09-19T05:48:11;10.90;;;1.40;;
78875;SDS011;68253;52.506;5.486;2023-09-19T05:53:05;6.07;;;1.20;;
78875;SDS011;68253;52.506;5.486;2023-09-19T05:55:32;7.63;;;1.20;;
78875;SDS011;68253;52.506;5.486;2023-09-19T05:57:58;9.50;;;1.38;;
78875;SDS011;68253;52.506;5.486;2023-09-19T06:00:25;8.95;;;1.20;;
78875;SDS011;68253;52.506;5.486;2023-09-19T06:02:53;9.85;;;1.40;;
78875;SDS011;68253;52.506;5.486;2023-09-19T06:05:21;8.77;;;1.10;;
78875;SDS011;68253;52.506;5.486;2023-09-19T06:07:48;10.10;;;1.30;;
78875;SDS011;68253;52.506;5.486;2023-09-19T06:10:17;10.63;;;1.50;;
78875;SDS011;68253;52.506;5.486;2023-09-19T06:12:46;12.15;;;1.40;;
78875;SDS011;68253;52.506;5.486;2023-09-19T06:15:14;7.28;;;1.30;;
78875;SDS011;68253;52.506;5.486;2023-09-19T06:17:42;10.23;;;1.25;;
78875;SDS011;68253;52.506;5.486;2023-09-19T06:20:08;7.85;;;1.30;;
78875;SDS011;68253;52.506;5.486;2023-09-19T06:22:41;10.02;;;1.27;;
78875;SDS011;68253;52.506;5.486;2023-09-19T06:25:12;6.88;;;1.05;;
78875;SDS011;68253;52.506;5.486;2023-09-19T06:27:42;9.15;;;1.42;;
78875;SDS011;68253;52.506;5.486;2023-09-19T06:30:08;7.07;;;1.10;;
78875;SDS011;68253;52.506;5.486;2023-09-19T06:32:37;6.20;;;0.90;;
78875;SDS011;68253;52.506;5.486;2023-09-19T06:35:03;7.80;;;1.30;;
78875;SDS011;68253;52.506;5.486;2023-09-19T06:37:32;7.72;;;1.13;;
78875;SDS011;68253;52.506;5.486;2023-09-19T06:40:00;5.93;;;1.20;;
78875;SDS011;68253;52.506;5.486;2023-09-19T06:42:26;9.82;;;1.40;;
78875;SDS011;68253;52.506;5.486;2023-09-19T06:44:53;11.35;;;1.58;;
78875;SDS011;68253;52.506;5.486;2023-09-19T06:47:20;13.68;;;2.30;;
78875;SDS011;68253;52.506;5.486;2023-09-19T06:49:46;10.15;;;1.30;;
78875;SDS011;68253;52.506;5.486;2023-09-19T06:52:13;10.88;;;1.05;;
78875;SDS011;68253;52.506;5.486;2023-09-19T06:54:40;7.90;;;1.10;;
78875;SDS011;68253;52.506;5.486;2023-09-19T06:57:07;9.43;;;1.30;;
78875;SDS011;68253;52.506;5.486;2023-09-19T06:59:35;10.10;;;1.40;;
78875;SDS011;68253;52.506;5.486;2023-09-19T07:02:02;8.77;;;1.08;;
78875;SDS011;68253;52.506;5.486;2023-09-19T07:04:31;8.93;;;1.30;;
78875;SDS011;68253;52.506;5.486;2023-09-19T07:06:58;7.95;;;1.63;;
78875;SDS011;68253;52.506;5.486;2023-09-19T07:09:24;11.55;;;1.50;;
78875;SDS011;68253;52.506;5.486;2023-09-19T07:11:53;8.27;;;1.63;;
78875;SDS011;68253;52.506;5.486;2023-09-19T07:14:19;9.65;;;1.20;;
78875;SDS011;68253;52.506;5.486;2023-09-19T07:16:45;8.32;;;1.17;;
78875;SDS011;68253;52.506;5.486;2023-09-19T07:19:13;9.65;;;1.33;;
78875;SDS011;68253;52.506;5.486;2023-09-19T07:21:40;8.43;;;1.13;;
78875;SDS011;68253;52.506;5.486;2023-09-19T07:24:07;11.20;;;1.30;;
78875;SDS011;68253;52.506;5.486;2023-09-19T07:26:34;9.25;;;1.50;;
78875;SDS011;68253;52.506;5.486;2023-09-19T07:29:00;10.02;;;1.40;;
78875;SDS011;68253;52.506;5.486;2023-09-19T07:31:29;8.63;;;1.25;;
78875;SDS011;68253;52.506;5.486;2023-09-19T07:33:56;10.32;;;1.63;;
78875;SDS011;68253;52.506;5.486;2023-09-19T07:36:22;11.65;;;1.63;;
78875;SDS011;68253;52.506;5.486;2023-09-19T07:38:50;11.05;;;1.88;;
78875;SDS011;68253;52.506;5.486;2023-09-19T07:41:16;7.38;;;1.17;;
78875;SDS011;68253;52.506;5.486;2023-09-19T07:43:42;7.63;;;1.02;;
78875;SDS011;68253;52.506;5.486;2023-09-19T07:46:09;9.90;;;1.42;;
78875;SDS011;68253;52.506;5.486;2023-09-19T07:48:37;12.07;;;1.55;;
78875;SDS011;68253;52.506;5.486;2023-09-19T07:51:07;9.77;;;1.60;;
78875;SDS011;68253;52.506;5.486;2023-09-19T07:53:34;8.60;;;1.50;;
78875;SDS011;68253;52.506;5.486;2023-09-19T07:56:01;10.18;;;1.50;;
78875;SDS011;68253;52.506;5.486;2023-09-19T07:58:29;10.68;;;1.55;;
78875;SDS011;68253;52.506;5.486;2023-09-19T08:00:55;9.63;;;1.60;;
78875;SDS011;68253;52.506;5.486;2023-09-19T08:03:21;10.90;;;1.48;;
78875;SDS011;68253;52.506;5.486;2023-09-19T08:05:47;12.02;;;2.10;;
78875;SDS011;68253;52.506;5.486;2023-09-19T08:08:13;8.40;;;1.17;;
78875;SDS011;68253;52.506;5.486;2023-09-19T08:10:40;10.25;;;1.70;;
78875;SDS011;68253;52.506;5.486;2023-09-19T08:13:08;10.70;;;1.40;;
78875;SDS011;68253;52.506;5.486;2023-09-19T08:15:43;10.57;;;1.50;;
78875;SDS011;68253;52.506;5.486;2023-09-19T08:18:09;9.07;;;1.48;;
78875;SDS011;68253;52.506;5.486;2023-09-19T08:20:38;11.65;;;1.50;;
78875;SDS011;68253;52.506;5.486;2023-09-19T08:23:07;9.70;;;1.52;;
78875;SDS011;68253;52.506;5.486;2023-09-19T08:25:34;13.07;;;1.70;;
78875;SDS011;68253;52.506;5.486;2023-09-19T08:28:00;12.35;;;1.50;;
78875;SDS011;68253;52.506;5.486;2023-09-19T08:30:28;9.50;;;1.50;;
78875;SDS011;68253;52.506;5.486;2023-09-19T08:32:59;11.25;;;1.42;;
78875;SDS011;68253;52.506;5.486;2023-09-19T08:35:26;10.00;;;1.45;;
78875;SDS011;68253;52.506;5.486;2023-09-19T08:37:53;10.90;;;1.70;;
78875;SDS011;68253;52.506;5.486;2023-09-19T08:40:21;8.23;;;1.42;;
78875;SDS011;68253;52.506;5.486;2023-09-19T08:45:15;7.90;;;1.50;;
78875;SDS011;68253;52.506;5.486;2023-09-19T08:47:45;11.88;;;1.70;;
78875;SDS011;68253;52.506;5.486;2023-09-19T08:50:26;8.80;;;1.20;;
78875;SDS011;68253;52.506;5.486;2023-09-19T08:52:55;9.45;;;1.65;;
78875;SDS011;68253;52.506;5.486;2023-09-19T08:55:28;11.13;;;1.60;;
78875;SDS011;68253;52.506;5.486;2023-09-19T08:58:00;13.55;;;1.63;;
78875;SDS011;68253;52.506;5.486;2023-09-19T09:00:28;10.38;;;1.58;;
78875;SDS011;68253;52.506;5.486;2023-09-19T09:02:57;13.70;;;2.08;;
78875;SDS011;68253;52.506;5.486;2023-09-19T09:05:24;11.95;;;1.75;;
78875;SDS011;68253;52.506;5.486;2023-09-19T09:07:52;10.98;;;1.50;;
78875;SDS011;68253;52.506;5.486;2023-09-19T09:10:22;10.18;;;1.80;;
78875;SDS011;68253;52.506;5.486;2023-09-19T09:12:52;12.52;;;1.83;;
78875;SDS011;68253;52.506;5.486;2023-09-19T09:15:23;12.82;;;1.80;;
78875;SDS011;68253;52.506;5.486;2023-09-19T09:17:50;9.77;;;1.80;;
78875;SDS011;68253;52.506;5.486;2023-09-19T09:22:51;9.77;;;1.30;;
78875;SDS011;68253;52.506;5.486;2023-09-19T09:25:24;10.50;;;1.65;;
78875;SDS011;68253;52.506;5.486;2023-09-19T09:28:13;10.23;;;1.48;;
78875;SDS011;68253;52.506;5.486;2023-09-19T09:30:45;9.07;;;1.65;;
78875;SDS011;68253;52.506;5.486;2023-09-19T09:33:12;9.68;;;1.30;;
78875;SDS011;68253;52.506;5.486;2023-09-19T09:35:47;10.65;;;1.73;;
78875;SDS011;68253;52.506;5.486;2023-09-19T09:38:20;10.82;;;1.42;;
78875;SDS011;68253;52.506;5.486;2023-09-19T09:40:51;12.07;;;1.98;;
78875;SDS011;68253;52.506;5.486;2023-09-19T09:43:39;11.43;;;1.70;;
78875;SDS011;68253;52.506;5.486;2023-09-19T09:46:08;11.75;;;1.63;;
78875;SDS011;68253;52.506;5.486;2023-09-19T09:54:25;8.55;;;1.30;;
78875;SDS011;68253;52.506;5.486;2023-09-19T09:56:59;9.10;;;1.60;;
78875;SDS011;68253;52.506;5.486;2023-09-19T09:59:43;8.13;;;1.58;;
78875;SDS011;68253;52.506;5.486;2023-09-19T10:02:27;9.27;;;1.65;;
78875;SDS011;68253;52.506;5.486;2023-09-19T10:04:58;10.32;;;1.40;;
78875;SDS011;68253;52.506;5.486;2023-09-19T10:07:35;8.65;;;1.67;;
78875;SDS011;68253;52.506;5.486;2023-09-19T10:10:06;9.93;;;1.92;;
78875;SDS011;68253;52.506;5.486;2023-09-19T10:15:09;11.77;;;1.85;;
78875;SDS011;68253;52.506;5.486;2023-09-19T10:17:37;11.85;;;1.80;;
78875;SDS011;68253;52.506;5.486;2023-09-19T10:20:09;8.85;;;1.42;;
78875;SDS011;68253;52.506;5.486;2023-09-19T10:22:49;10.75;;;1.50;;
78875;SDS011;68253;52.506;5.486;2023-09-19T10:25:24;9.95;;;1.48;;
78875;SDS011;68253;52.506;5.486;2023-09-19T10:27:51;12.10;;;1.75;;
78875;SDS011;68253;52.506;5.486;2023-09-19T10:30:22;8.40;;;1.27;;
78875;SDS011;68253;52.506;5.486;2023-09-19T10:35:22;9.80;;;1.63;;
78875;SDS011;68253;52.506;5.486;2023-09-19T10:37:50;12.75;;;1.50;;
78875;SDS011;68253;52.506;5.486;2023-09-19T10:40:17;10.65;;;1.85;;
78875;SDS011;68253;52.506;5.486;2023-09-19T10:42:45;8.35;;;1.27;;
78875;SDS011;68253;52.506;5.486;2023-09-19T10:45:14;9.65;;;1.58;;
78875;SDS011;68253;52.506;5.486;2023-09-19T10:47:44;12.10;;;1.73;;
78875;SDS011;68253;52.506;5.486;2023-09-19T10:50:13;10.00;;;1.35;;
78875;SDS011;68253;52.506;5.486;2023-09-19T10:52:47;8.02;;;1.17;;
78875;SDS011;68253;52.506;5.486;2023-09-19T10:55:24;9.30;;;1.17;;
78875;SDS011;68253;52.506;5.486;2023-09-19T10:57:53;10.40;;;1.40;;
78875;SDS011;68253;52.506;5.486;2023-09-19T11:03:21;9.88;;;1.45;;
78875;SDS011;68253;52.506;5.486;2023-09-19T11:06:01;13.38;;;1.40;;
78875;SDS011;68253;52.506;5.486;2023-09-19T11:08:50;8.30;;;1.58;;
78875;SDS011;68253;52.506;5.486;2023-09-19T11:11:40;9.70;;;1.45;;
78875;SDS011;68253;52.506;5.486;2023-09-19T11:30:41;7.25;;;1.25;;
78875;SDS011;68253;52.506;5.486;2023-09-19T11:33:19;9.68;;;1.50;;
78875;SDS011;68253;52.506;5.486;2023-09-19T11:43:51;8.80;;;1.45;;
78875;SDS011;68253;52.506;5.486;2023-09-19T11:51:57;8.85;;;1.10;;
78875;SDS011;68253;52.506;5.486;2023-09-19T11:54:30;9.95;;;1.45;;
78875;SDS011;68253;52.506;5.486;2023-09-19T11:56:58;6.35;;;1.23;;
78875;SDS011;68253;52.506;5.486;2023-09-19T11:59:26;6.47;;;0.80;;
78875;SDS011;68253;52.506;5.486;2023-09-19T12:01:58;7.28;;;0.80;;
78875;SDS011;68253;52.506;5.486;2023-09-19T12:07:08;6.68;;;1.27;;
78875;SDS011;68253;52.506;5.486;2023-09-19T12:09:41;9.35;;;1.00;;
78875;SDS011;68253;52.506;5.486;2023-09-19T12:12:24;8.45;;;1.00;;
78875;SDS011;68253;52.506;5.486;2023-09-19T12:14:55;8.38;;;1.10;;
78875;SDS011;68253;52.506;5.486;2023-09-19T12:17:37;8.63;;;0.90;;
78875;SDS011;68253;52.506;5.486;2023-09-19T12:20:08;10.18;;;1.20;;
78875;SDS011;68253;52.506;5.486;2023-09-19T12:22:39;6.75;;;1.00;;
78875;SDS011;68253;52.506;5.486;2023-09-19T12:25:09;9.98;;;1.00;;
78875;SDS011;68253;52.506;5.486;2023-09-19T12:27:43;6.55;;;0.70;;
78875;SDS011;68253;52.506;5.486;2023-09-19T12:32:44;6.55;;;0.77;;
78875;SDS011;68253;52.506;5.486;2023-09-19T12:35:26;8.30;;;0.80;;
78875;SDS011;68253;52.506;5.486;2023-09-19T12:37:54;4.78;;;0.75;;
78875;SDS011;68253;52.506;5.486;2023-09-19T12:40:21;3.97;;;0.60;;
78875;SDS011;68253;52.506;5.486;2023-09-19T12:42:48;9.10;;;1.35;;
78875;SDS011;68253;52.506;5.486;2023-09-19T12:45:15;6.07;;;0.88;;
78875;SDS011;68253;52.506;5.486;2023-09-19T12:50:59;7.28;;;0.80;;
78875;SDS011;68253;52.506;5.486;2023-09-19T12:53:56;6.47;;;0.70;;
78875;SDS011;68253;52.506;5.486;2023-09-19T12:56:23;6.97;;;0.63;;
78875;SDS011;68253;52.506;5.486;2023-09-19T12:58:59;6.63;;;1.00;;
78875;SDS011;68253;52.506;5.486;2023-09-19T13:01:28;6.78;;;0.90;;
78875;SDS011;68253;52.506;5.486;2023-09-19T13:04:14;8.25;;;0.90;;
78875;SDS011;68253;52.506;5.486;2023-09-19T13:06:48;7.22;;;0.98;;
78875;SDS011;68253;52.506;5.486;2023-09-19T13:09:16;5.15;;;0.95;;
78875;SDS011;68253;52.506;5.486;2023-09-19T13:11:43;8.38;;;0.98;;
78875;SDS011;68253;52.506;5.486;2023-09-19T13:14:17;5.82;;;0.90;;
78875;SDS011;68253;52.506;5.486;2023-09-19T13:19:36;4.68;;;0.90;;
78875;SDS011;68253;52.506;5.486;2023-09-19T13:22:35;4.93;;;0.77;;
78875;SDS011;68253;52.506;5.486;2023-09-19T13:25:17;5.88;;;0.80;;
78875;SDS011;68253;52.506;5.486;2023-09-19T13:27:48;5.35;;;0.80;;
78875;SDS011;68253;52.506;5.486;2023-09-19T13:30:18;3.75;;;0.60;;
78875;SDS011;68253;52.506;5.486;2023-09-19T13:32:44;7.38;;;1.00;;
78875;SDS011;68253;52.506;5.486;2023-09-19T13:35:15;6.95;;;0.95;;
78875;SDS011;68253;52.506;5.486;2023-09-19T13:37:42;5.57;;;0.90;;
78875;SDS011;68253;52.506;5.486;2023-09-19T13:40:10;5.80;;;0.90;;
78875;SDS011;68253;52.506;5.486;2023-09-19T13:42:37;6.28;;;0.80;;
78875;SDS011;68253;52.506;5.486;2023-09-19T13:45:04;6.78;;;1.00;;
78875;SDS011;68253;52.506;5.486;2023-09-19T13:47:31;8.52;;;1.40;;
78875;SDS011;68253;52.506;5.486;2023-09-19T13:49:58;6.15;;;0.95;;
78875;SDS011;68253;52.506;5.486;2023-09-19T13:52:26;6.75;;;0.77;;
78875;SDS011;68253;52.506;5.486;2023-09-19T13:54:55;6.05;;;0.80;;
78875;SDS011;68253;52.506;5.486;2023-09-19T13:59:51;7.88;;;0.90;;
78875;SDS011;68253;52.506;5.486;2023-09-19T14:02:17;3.85;;;0.90;;
78875;SDS011;68253;52.506;5.486;2023-09-19T14:04:44;4.57;;;0.80;;
78875;SDS011;68253;52.506;5.486;2023-09-19T14:07:10;7.03;;;1.20;;
78875;SDS011;68253;52.506;5.486;2023-09-19T14:09:37;7.20;;;0.80;;
78875;SDS011;68253;52.506;5.486;2023-09-19T14:12:03;6.05;;;0.80;;
78875;SDS011;68253;52.506;5.486;2023-09-19T14:14:29;8.73;;;0.88;;
78875;SDS011;68253;52.506;5.486;2023-09-19T14:16:55;3.53;;;0.63;;
78875;SDS011;68253;52.506;5.486;2023-09-19T14:19:22;4.97;;;0.75;;
78875;SDS011;68253;52.506;5.486;2023-09-19T14:21:48;6.82;;;0.70;;
78875;SDS011;68253;52.506;5.486;2023-09-19T14:24:17;5.38;;;0.70;;
78875;SDS011;68253;52.506;5.486;2023-09-19T14:26:44;9.05;;;1.50;;
78875;SDS011;68253;52.506;5.486;2023-09-19T14:29:11;5.30;;;0.80;;
78875;SDS011;68253;52.506;5.486;2023-09-19T14:31:38;7.50;;;1.00;;
78875;SDS011;68253;52.506;5.486;2023-09-19T14:34:05;6.82;;;0.88;;
78875;SDS011;68253;52.506;5.486;2023-09-19T14:36:32;6.93;;;1.25;;
78875;SDS011;68253;52.506;5.486;2023-09-19T14:38:59;5.70;;;1.08;;
78875;SDS011;68253;52.506;5.486;2023-09-19T14:41:25;6.07;;;1.25;;
78875;SDS011;68253;52.506;5.486;2023-09-19T14:43:51;5.63;;;0.90;;
78875;SDS011;68253;52.506;5.486;2023-09-19T14:46:18;7.75;;;1.17;;
78875;SDS011;68253;52.506;5.486;2023-09-19T14:48:45;5.80;;;1.17;;
78875;SDS011;68253;52.506;5.486;2023-09-19T14:51:14;6.97;;;1.00;;
78875;SDS011;68253;52.506;5.486;2023-09-19T14:53:40;6.05;;;1.05;;
78875;SDS011;68253;52.506;5.486;2023-09-19T14:56:07;7.35;;;1.30;;
78875;SDS011;68253;52.506;5.486;2023-09-19T14:58:35;6.35;;;0.88;;
78875;SDS011;68253;52.506;5.486;2023-09-19T15:01:05;5.82;;;1.00;;
78875;SDS011;68253;52.506;5.486;2023-09-19T15:03:32;6.47;;;1.10;;
78875;SDS011;68253;52.506;5.486;2023-09-19T15:06:00;6.53;;;1.08;;
78875;SDS011;68253;52.506;5.486;2023-09-19T15:08:27;5.78;;;0.95;;
78875;SDS011;68253;52.506;5.486;2023-09-19T15:10:53;6.60;;;1.10;;
78875;SDS011;68253;52.506;5.486;2023-09-19T15:13:19;5.07;;;0.85;;
78875;SDS011;68253;52.506;5.486;2023-09-19T15:15:46;5.47;;;1.00;;
78875;SDS011;68253;52.506;5.486;2023-09-19T15:18:13;7.10;;;1.25;;
78875;SDS011;68253;52.506;5.486;2023-09-19T15:20:43;7.38;;;1.17;;
78875;SDS011;68253;52.506;5.486;2023-09-19T15:23:10;7.85;;;1.60;;
78875;SDS011;68253;52.506;5.486;2023-09-19T15:25:38;7.95;;;1.30;;
78875;SDS011;68253;52.506;5.486;2023-09-19T15:28:06;5.70;;;1.17;;
78875;SDS011;68253;52.506;5.486;2023-09-19T15:30:39;9.90;;;1.30;;
78875;SDS011;68253;52.506;5.486;2023-09-19T15:33:06;6.43;;;1.20;;
78875;SDS011;68253;52.506;5.486;2023-09-19T15:35:32;6.60;;;1.23;;
78875;SDS011;68253;52.506;5.486;2023-09-19T15:37:58;5.88;;;1.33;;
78875;SDS011;68253;52.506;5.486;2023-09-19T15:40:26;7.43;;;1.33;;
78875;SDS011;68253;52.506;5.486;2023-09-19T15:42:55;8.63;;;1.40;;
78875;SDS011;68253;52.506;5.486;2023-09-19T15:45:23;8.10;;;1.55;;
78875;SDS011;68253;52.506;5.486;2023-09-19T15:47:50;8.45;;;1.25;;
78875;SDS011;68253;52.506;5.486;2023-09-19T15:50:17;9.32;;;1.63;;
78875;SDS011;68253;52.506;5.486;2023-09-19T15:52:43;7.78;;;1.50;;
78875;SDS011;68253;52.506;5.486;2023-09-19T15:55:09;7.00;;;1.50;;
78875;SDS011;68253;52.506;5.486;2023-09-19T15:57:37;9.15;;;1.67;;
78875;SDS011;68253;52.506;5.486;2023-09-19T16:00:04;7.05;;;1.20;;
78875;SDS011;68253;52.506;5.486;2023-09-19T16:02:37;9.23;;;1.23;;
78875;SDS011;68253;52.506;5.486;2023-09-19T16:05:03;7.43;;;1.33;;
78875;SDS011;68253;52.506;5.486;2023-09-19T16:07:31;6.57;;;1.00;;
78875;SDS011;68253;52.506;5.486;2023-09-19T16:09:58;9.35;;;1.95;;
78875;SDS011;68253;52.506;5.486;2023-09-19T16:12:25;7.15;;;1.38;;
78875;SDS011;68253;52.506;5.486;2023-09-19T16:14:52;8.88;;;1.50;;
78875;SDS011;68253;52.506;5.486;2023-09-19T16:17:18;8.32;;;1.33;;
78875;SDS011;68253;52.506;5.486;2023-09-19T16:19:44;9.43;;;1.60;;
78875;SDS011;68253;52.506;5.486;2023-09-19T16:22:10;7.72;;;1.35;;